Johan Adolf Pengel International Airport


Codes: SMJP/PBM
Name: Johan Adolf Pengel International Airport
City: Zandery
Country: Suriname
Elevation: 59 ft.
Website:
Wikipedia:

Photos at Johan Adolf Pengel International Airport


   Photos courtesy of SpottingLog. You can add your own sightings and photos by signing up for a free trial today.



No photos found.

Weather at Johan Adolf Pengel International Airport


Time (UTC)DescriptionTempratureWindCloud coverageVisibilityPressureHumidity
18-Apr-2024 00:00Light Rain25°C4 mph, NE100%10000m1010hPa98%
18-Apr-2024 03:00Overcast Clouds24°C2 mph, E100%10000m1011hPa96%
18-Apr-2024 06:00Overcast Clouds23°C2 mph, E100%10000m1010hPa97%
18-Apr-2024 09:00Overcast Clouds23°C2 mph, E100%10000m1010hPa98%
18-Apr-2024 12:00Overcast Clouds27°C2 mph, SE100%10000m1012hPa84%
18-Apr-2024 15:00Light Rain33°C2 mph, SE84%10000m1011hPa54%
18-Apr-2024 18:00Light Rain27°C2 mph, NE93%8521m1009hPa90%
18-Apr-2024 21:00Moderate Rain25°C4 mph, E99%10000m1009hPa95%
19-Apr-2024 00:00Moderate Rain24°C4 mph, E100%10000m1011hPa98%
19-Apr-2024 03:00Light Rain24°C2 mph, SE100%10000m1012hPa98%
19-Apr-2024 06:00Overcast Clouds23°C2 mph, SE100%10000m1010hPa99%
19-Apr-2024 09:00Light Rain24°C2 mph, E100%10000m1011hPa99%
19-Apr-2024 12:00Overcast Clouds26°C4 mph, E100%10000m1013hPa92%
19-Apr-2024 15:00Light Rain30°C7 mph, E98%10000m1011hPa73%
19-Apr-2024 18:00Light Rain29°C4 mph, NE93%10000m1008hPa80%
19-Apr-2024 21:00Light Rain27°C4 mph, E99%10000m1009hPa85%
20-Apr-2024 00:00Light Rain24°C4 mph, NE99%10000m1011hPa89%
20-Apr-2024 03:00Overcast Clouds24°C4 mph, E100%10000m1012hPa91%
20-Apr-2024 06:00Overcast Clouds24°C2 mph, E100%10000m1010hPa92%
20-Apr-2024 09:00Overcast Clouds23°C2 mph, E100%10000m1012hPa94%
20-Apr-2024 12:00Overcast Clouds27°C4 mph, E100%10000m1013hPa70%
20-Apr-2024 15:00Overcast Clouds33°C7 mph, E97%10000m1012hPa43%
20-Apr-2024 18:00Overcast Clouds34°C7 mph, E97%10000m1009hPa39%
20-Apr-2024 21:00Overcast Clouds30°C4 mph, NE96%10000m1008hPa54%
21-Apr-2024 00:00Overcast Clouds26°C4 mph, NE93%10000m1011hPa72%
21-Apr-2024 03:00Overcast Clouds24°C4 mph, E100%10000m1012hPa85%
21-Apr-2024 06:00Overcast Clouds23°C2 mph, NE100%10000m1010hPa94%
21-Apr-2024 09:00Broken Clouds22°C2 mph, NE76%10000m1011hPa93%
21-Apr-2024 12:00Overcast Clouds29°C4 mph, NE88%10000m1013hPa63%
21-Apr-2024 15:00Broken Clouds31°C4 mph, NE75%10000m1012hPa53%
21-Apr-2024 18:00Overcast Clouds31°C4 mph, N87%10000m1009hPa57%
21-Apr-2024 21:00Light Rain28°C7 mph, N98%10000m1009hPa70%
22-Apr-2024 00:00Overcast Clouds26°C4 mph, N96%10000m1011hPa83%
22-Apr-2024 03:00Light Rain24°C4 mph, NE100%10000m1012hPa97%
22-Apr-2024 06:00Light Rain24°C2 mph, NE100%10000m1010hPa98%
22-Apr-2024 09:00Light Rain24°C2 mph, NE100%10000m1011hPa99%
22-Apr-2024 12:00Light Rain25°C2 mph, E100%10000m1013hPa94%
22-Apr-2024 15:00Light Rain25°C4 mph, NE100%10000m1013hPa95%
22-Apr-2024 18:00Light Rain24°C4 mph, NE100%10000m1010hPa97%
22-Apr-2024 21:00Light Rain24°C2 mph, E100%10000m1010hPa98%